メインページ
METAR-TAF:

METAR-TAF

空港 :

Mason Jewett Field

Mason, ミシガン州, アメリカ合衆国

緯度: 42-33-57N, 経度: 084-25-24W, 海抜: 280m

現時点の気象観測

当レポートは20分前の01:36(UTC)に作成
南/南東の風 7kt
気温 24°C
湿度 94%
気圧 1012 hPa
視程: 16.1km
高度3300ftの千切れ雲あり
高度4700ftの千切れ雲あり
高度6000ftの千切れ雲あり

METAR: KTEW 200136Z AUTO 16007KT 10SM BKN033 BKN047 BKN060 24/23 A2989 RMK AO2 T02400230

時間: 21:56 (01:56 UTC)


TAF: 見つかりません

4,000以上の空港の気象観測と天気予報(METAR報とTAF報)

利用可能な観測所は地図上に黄色い丸と赤い丸で示す。

丸の上にカーソルを重ねると観測所名を参照できる。

次にクリックすると気象観測と天気予報を参照できる。

マップの切り替え:黒色「×」印の緑ボタンをクリックして拡大、「-」印の緑ボタンをクリックして縮小、緑色の三角印をクリックして隣りの地図に切り替え


METAR-TAF: